Adamsville, Rhode Island
Current Conditions -  °F | °C
As of 12:53 PM on Wednesday 28 Jan 2015 (Local Time) from KUUU Reporting Station
Clear Clear  
Wind Chill:   Ceiling: Unl
Heat Index: 21°   Visibility: 10mi
Dew Point:   Wind: 14mph
Humidity: 55%   Direction: 310°NW
Pressure: 29.96"   Gusts: NA
Location:  41.55°N, 71.13°W
Report Text: KUUU 281753Z AUTO 31012KT 10SM CLR M06/M14 A2996 RMK AO2 SLP146 T10611139 11061 21106 53009
Loading
Personal Weather Stations






























Interactive Weather Map New forecast layout! Learn more

10-Day Weather Forecast

Advertisements
Track Severe Weather on mobile